Time;durP1;ratioP1;P1;durP2;ratioP2;P2;SDS_P1;SDS_P2;PMS_P1;PMS_P2;Temp;Humidity;BMP_temperature;BMP_pressure;BME280_temperature;BME280_humidity;BME280_pressure;Samples;Min_cycle;Max_cycle;Signal;HPM_P1;HPM_P2
2022/07/28 00:01:53;;;;;;;;;;;25.50;65.80;;;;;;4940547;29;19950;-96
2022/07/28 00:04:19;;;;;;;;;;;25.40;65.70;;;;;;4939535;29;19950;-96
2022/07/28 00:06:46;;;;;;;;;;;25.30;65.90;;;;;;4940922;29;19998;-96
2022/07/28 00:09:11;;;;;;;;;;;25.20;66.30;;;;;;4957674;29;20017;-96
2022/07/28 00:11:38;;;;;;;;;;;25.10;66.70;;;;;;4956051;29;19948;-96
2022/07/28 00:14:03;;;;;;;;;;;25.00;66.90;;;;;;4940029;29;19964;-96
2022/07/28 00:16:30;;;;;;;;;;;25.00;67.30;;;;;;4939695;29;20411;-96
2022/07/28 00:18:59;;;;;;;;;;;24.90;67.60;;;;;;4956982;29;19966;-96
2022/07/28 00:21:25;;;;;;;;;;;24.80;67.90;;;;;;4940469;29;19998;-96
2022/07/28 00:23:51;;;;;;;;;;;24.80;68.10;;;;;;4939954;29;19953;-96
2022/07/28 00:26:17;;;;;;;;;;;24.80;68.30;;;;;;4940294;29;20380;-96
2022/07/28 00:28:44;;;;;;;;;;;24.80;68.50;;;;;;4940020;29;19978;-96
2022/07/28 00:31:10;;;;;;;;;;;24.80;68.70;;;;;;4939790;29;19951;-96
2022/07/28 00:33:36;;;;;;;;;;;24.80;68.80;;;;;;4956952;29;19997;-96
2022/07/28 00:36:02;;;;;;;;;;;24.80;69.00;;;;;;4939686;29;19971;-96
2022/07/28 00:38:28;;;;;;;;;;;24.80;68.90;;;;;;4939879;29;19964;-96
2022/07/28 00:41:10;;;;;;;;;;;24.80;69.20;;;;;;4939314;29;20420;-96
2022/07/28 00:43:38;;;;;;;;;;;24.90;69.20;;;;;;4938695;29;19952;-96
2022/07/28 00:46:05;;;;;;;;;;;24.90;69.70;;;;;;4939191;29;19945;-96
2022/07/28 00:48:31;;;;;;;;;;;24.90;69.40;;;;;;4939592;29;19944;-96
2022/07/28 00:50:57;;;;;;;;;;;24.80;69.40;;;;;;4938879;29;19953;-96
2022/07/28 00:53:23;;;;;;;;;;;24.80;69.80;;;;;;4938734;29;20443;-96
2022/07/28 00:55:49;;;;;;;;;;;24.80;70.50;;;;;;4937965;29;19945;-96
2022/07/28 00:58:14;;;;;;;;;;;24.70;70.20;;;;;;4936256;29;19971;-96
2022/07/28 01:00:40;;;;;;;;;;;24.70;70.50;;;;;;4953073;29;19964;-96
2022/07/28 01:03:06;;;;;;;;;;;24.60;71.00;;;;;;4953662;29;19952;-96
2022/07/28 01:05:40;;;;;;;;;;;24.50;71.60;;;;;;4937002;29;19948;-96
2022/07/28 01:08:11;;;;;;;;;;;24.40;72.00;;;;;;4935995;29;19979;-96
2022/07/28 01:10:56;;;;;;;;;;;24.40;72.00;;;;;;4936633;29;20036;-96
2022/07/28 01:13:25;;;;;;;;;;;24.50;72.10;;;;;;4954526;29;19944;-96
2022/07/28 01:15:55;;;;;;;;;;;24.50;71.60;;;;;;4938289;29;19983;-96
2022/07/28 01:18:23;;;;;;;;;;;24.50;71.60;;;;;;4938623;29;19969;-96
2022/07/28 01:20:52;;;;;;;;;;;24.50;72.10;;;;;;4937567;29;19973;-96
2022/07/28 01:23:30;;;;;;;;;;;24.50;71.20;;;;;;4936799;29;19942;-96
2022/07/28 01:26:08;;;;;;;;;;;24.40;71.40;;;;;;4953877;29;19945;-96
2022/07/28 01:28:50;;;;;;;;;;;24.30;71.90;;;;;;4936131;29;19955;-96
2022/07/28 01:31:20;;;;;;;;;;;24.30;72.10;;;;;;4935576;29;19953;-96
2022/07/28 01:33:47;;;;;;;;;;;24.10;72.60;;;;;;4951544;29;19968;-96
2022/07/28 01:36:15;;;;;;;;;;;24.00;72.90;;;;;;4934981;29;19971;-96
2022/07/28 01:38:41;;;;;;;;;;;24.00;73.20;;;;;;4935073;29;20036;-96
2022/07/28 01:41:10;;;;;;;;;;;23.90;73.50;;;;;;4953195;29;20079;-96
2022/07/28 01:43:39;;;;;;;;;;;24.00;73.60;;;;;;4936385;29;19961;-96
2022/07/28 01:46:05;;;;;;;;;;;24.00;73.50;;;;;;4952651;29;19946;-96
2022/07/28 01:48:32;;;;;;;;;;;24.00;73.40;;;;;;4934891;29;19946;-96
2022/07/28 01:50:59;;;;;;;;;;;24.00;73.40;;;;;;4937471;23;20078;-96
2022/07/28 01:53:25;;;;;;;;;;;23.90;73.70;;;;;;4933917;29;19948;-96
2022/07/28 01:55:51;;;;;;;;;;;23.90;74.10;;;;;;4916822;29;19990;-96
2022/07/28 01:58:19;;;;;;;;;;;23.90;74.40;;;;;;4916413;29;19967;-96
2022/07/28 02:00:48;;;;;;;;;;;23.90;74.10;;;;;;4915357;29;19947;-96
2022/07/28 02:03:15;;;;;;;;;;;24.00;74.50;;;;;;4914198;29;19947;-96
2022/07/28 02:05:41;;;;;;;;;;;24.10;74.00;;;;;;4906504;29;20016;-96
2022/07/28 02:08:08;;;;;;;;;;;24.20;73.20;;;;;;4908107;29;19972;-96
2022/07/28 02:10:34;;;;;;;;;;;24.20;73.20;;;;;;4921603;29;19954;-96
2022/07/28 02:13:01;;;;;;;;;;;24.00;73.70;;;;;;4903536;29;20403;-96
2022/07/28 02:15:28;;;;;;;;;;;24.00;74.10;;;;;;4920652;29;20420;-96
2022/07/28 02:17:54;;;;;;;;;;;24.00;74.10;;;;;;4920361;29;20033;-96
2022/07/28 02:20:21;;;;;;;;;;;24.00;74.10;;;;;;4921723;29;19977;-96
2022/07/28 02:22:47;;;;;;;;;;;23.90;74.70;;;;;;4923603;29;19954;-96
2022/07/28 02:25:13;;;;;;;;;;;23.90;74.80;;;;;;4906171;29;19994;-96
2022/07/28 02:27:41;;;;;;;;;;;23.90;74.00;;;;;;4906024;29;20023;-96
2022/07/28 02:30:17;;;;;;;;;;;24.00;74.30;;;;;;4906334;29;20041;-96
2022/07/28 02:32:49;;;;;;;;;;;24.00;73.40;;;;;;4923421;29;19955;-96
2022/07/28 02:35:30;;;;;;;;;;;24.00;71.50;;;;;;4905673;29;20085;-96
2022/07/28 02:38:00;;;;;;;;;;;24.00;73.30;;;;;;4923236;29;20031;-96
2022/07/28 02:40:32;;;;;;;;;;;24.00;73.10;;;;;;4922520;29;19944;-96
2022/07/28 02:42:58;;;;;;;;;;;24.10;71.70;;;;;;4921977;29;19945;-96
2022/07/28 02:45:25;;;;;;;;;;;24.10;70.80;;;;;;4903717;29;19991;-96
2022/07/28 02:47:52;;;;;;;;;;;24.10;70.80;;;;;;4907883;29;19949;-96
2022/07/28 02:50:20;;;;;;;;;;;24.10;70.90;;;;;;4907610;29;20013;-96
2022/07/28 02:52:46;;;;;;;;;;;24.00;70.90;;;;;;4923407;29;20010;-96
2022/07/28 02:55:14;;;;;;;;;;;24.00;70.90;;;;;;4921416;29;19949;-92
2022/07/28 02:57:40;;;;;;;;;;;23.90;70.90;;;;;;4939952;29;20030;-94
2022/07/28 03:00:06;;;;;;;;;;;23.90;71.00;;;;;;4936976;29;19951;-94
2022/07/28 03:02:35;;;;;;;;;;;23.90;71.20;;;;;;4937210;29;20472;-96
2022/07/28 03:05:01;;;;;;;;;;;23.90;71.70;;;;;;4937046;29;20407;-96
2022/07/28 03:07:28;;;;;;;;;;;23.90;72.60;;;;;;4946251;29;19948;-96
2022/07/28 03:09:53;;;;;;;;;;;23.90;73.30;;;;;;4945749;29;19957;-96
2022/07/28 03:12:19;;;;;;;;;;;23.80;73.90;;;;;;4945131;29;19981;-96
2022/07/28 03:14:45;;;;;;;;;;;23.80;74.10;;;;;;4927666;29;19949;-96
2022/07/28 03:17:11;;;;;;;;;;;23.80;73.50;;;;;;4944914;29;19953;-96
2022/07/28 03:19:36;;;;;;;;;;;23.80;73.40;;;;;;4927424;29;19968;-96
2022/07/28 03:22:02;;;;;;;;;;;23.60;73.80;;;;;;4931290;29;20034;-96
2022/07/28 03:24:39;;;;;;;;;;;23.50;74.00;;;;;;4946944;29;19954;-96
2022/07/28 03:27:14;;;;;;;;;;;23.40;73.90;;;;;;4932163;29;20400;-96
2022/07/28 03:29:41;;;;;;;;;;;23.20;74.00;;;;;;4947191;29;19943;-96
2022/07/28 03:32:07;;;;;;;;;;;23.20;74.60;;;;;;4930291;29;19982;-96
2022/07/28 03:34:33;;;;;;;;;;;23.20;75.10;;;;;;4947850;29;19942;-96
2022/07/28 03:37:01;;;;;;;;;;;23.10;75.20;;;;;;4928740;29;19939;-96
2022/07/28 03:39:29;;;;;;;;;;;23.10;75.30;;;;;;4944992;29;19969;-96
2022/07/28 03:41:57;;;;;;;;;;;23.10;75.30;;;;;;4944465;29;19979;-96
2022/07/28 03:44:24;;;;;;;;;;;23.10;74.40;;;;;;4927728;29;19967;-96
2022/07/28 03:46:49;;;;;;;;;;;23.10;74.20;;;;;;4944082;29;19944;-96
2022/07/28 03:49:15;;;;;;;;;;;23.20;74.20;;;;;;4944013;29;19943;-96
2022/07/28 03:51:40;;;;;;;;;;;23.20;73.90;;;;;;4925942;29;20074;-96
2022/07/28 03:54:06;;;;;;;;;;;23.20;75.00;;;;;;4943440;29;19945;-96
2022/07/28 03:56:31;;;;;;;;;;;23.30;75.50;;;;;;4942589;29;19944;-96
2022/07/28 03:58:57;;;;;;;;;;;23.20;75.80;;;;;;4945837;29;19966;-96
2022/07/28 04:01:22;;;;;;;;;;;23.20;75.90;;;;;;4943970;29;19943;-96
2022/07/28 04:03:48;;;;;;;;;;;23.30;75.10;;;;;;4940028;29;19940;-96
2022/07/28 04:06:14;;;;;;;;;;;23.30;75.30;;;;;;4928565;29;20307;-96
2022/07/28 04:08:40;;;;;;;;;;;23.30;75.10;;;;;;4939683;29;20005;-96
2022/07/28 04:11:05;;;;;;;;;;;23.30;75.20;;;;;;4940098;29;19944;-96
2022/07/28 04:13:31;;;;;;;;;;;23.40;75.80;;;;;;4924649;29;20004;-96
2022/07/28 04:15:57;;;;;;;;;;;23.40;73.20;;;;;;4940046;29;19943;-96
2022/07/28 04:18:22;;;;;;;;;;;23.50;72.20;;;;;;4943477;29;19986;-96
2022/07/28 04:20:48;;;;;;;;;;;23.60;72.10;;;;;;4944327;29;20288;-96
2022/07/28 04:23:14;;;;;;;;;;;23.60;71.80;;;;;;4944947;29;20361;-96
2022/07/28 04:25:40;;;;;;;;;;;23.60;71.00;;;;;;4936480;29;19949;-96
2022/07/28 04:28:05;;;;;;;;;;;23.70;70.60;;;;;;4952759;29;19938;-96
2022/07/28 04:30:31;;;;;;;;;;;23.70;70.00;;;;;;4937128;29;19967;-96
2022/07/28 04:32:57;;;;;;;;;;;23.70;70.00;;;;;;4936202;29;19971;-96
2022/07/28 04:35:23;;;;;;;;;;;23.60;70.10;;;;;;4952946;29;19944;-96
2022/07/28 04:37:49;;;;;;;;;;;23.60;70.30;;;;;;4936133;29;19955;-96
2022/07/28 04:40:16;;;;;;;;;;;23.60;70.40;;;;;;4937218;29;19991;-96
2022/07/28 04:42:42;;;;;;;;;;;23.60;70.30;;;;;;4953666;29;19959;-96
2022/07/28 04:45:10;;;;;;;;;;;23.60;70.20;;;;;;4952984;29;19975;-96
2022/07/28 04:47:36;;;;;;;;;;;23.50;70.30;;;;;;4953170;29;19941;-96
2022/07/28 04:50:02;;;;;;;;;;;23.50;70.30;;;;;;4935748;29;20053;-96
2022/07/28 04:52:27;;;;;;;;;;;23.50;70.10;;;;;;4934459;29;19988;-96
2022/07/28 04:54:53;;;;;;;;;;;23.50;70.10;;;;;;4951268;29;19983;-96
2022/07/28 04:57:19;;;;;;;;;;;23.50;70.20;;;;;;4947754;29;19961;-96
2022/07/28 04:59:45;;;;;;;;;;;23.70;69.90;;;;;;4948445;29;19990;-96
2022/07/28 05:02:11;;;;;;;;;;;23.80;69.40;;;;;;4948355;29;19950;-96
2022/07/28 05:04:36;;;;;;;;;;;23.90;68.80;;;;;;4948950;29;19990;-96
2022/07/28 05:07:02;;;;;;;;;;;24.00;68.30;;;;;;4932500;29;19945;-96
2022/07/28 05:09:28;;;;;;;;;;;24.00;68.10;;;;;;4933090;29;19949;-96
2022/07/28 05:11:54;;;;;;;;;;;24.10;67.70;;;;;;4932355;29;20452;-96
2022/07/28 05:14:19;;;;;;;;;;;24.10;67.90;;;;;;4931948;29;19959;-96
2022/07/28 05:16:45;;;;;;;;;;;24.10;67.80;;;;;;4948133;29;20036;-96
2022/07/28 05:19:11;;;;;;;;;;;24.10;67.90;;;;;;4947294;29;20039;-96
2022/07/28 05:21:37;;;;;;;;;;;24.10;67.90;;;;;;4930659;29;19971;-96
2022/07/28 05:24:02;;;;;;;;;;;24.00;67.90;;;;;;4930614;29;19943;-96
2022/07/28 05:26:29;;;;;;;;;;;24.00;67.70;;;;;;4943514;29;19965;-96
2022/07/28 05:28:55;;;;;;;;;;;24.10;67.50;;;;;;4947041;29;19939;-96
2022/07/28 05:31:21;;;;;;;;;;;24.20;67.20;;;;;;4946711;29;20012;-96
2022/07/28 05:33:47;;;;;;;;;;;24.20;67.00;;;;;;4929827;29;19951;-96
2022/07/28 05:36:12;;;;;;;;;;;24.30;66.60;;;;;;4946346;29;20007;-96
2022/07/28 05:38:38;;;;;;;;;;;24.40;65.90;;;;;;4946469;29;19961;-96
2022/07/28 05:41:05;;;;;;;;;;;24.40;65.50;;;;;;4946578;29;19974;-96
2022/07/28 05:43:31;;;;;;;;;;;24.60;64.10;;;;;;4946160;29;19946;-96
2022/07/28 05:45:56;;;;;;;;;;;24.80;63.20;;;;;;4929751;29;20078;-96
2022/07/28 05:48:22;;;;;;;;;;;25.00;62.70;;;;;;4945048;29;19992;-96
2022/07/28 05:50:50;;;;;;;;;;;25.20;61.40;;;;;;4946031;29;19944;-96
2022/07/28 05:53:16;;;;;;;;;;;25.40;60.80;;;;;;4949661;29;20052;-96
2022/07/28 05:55:42;;;;;;;;;;;25.50;60.50;;;;;;4949691;29;19952;-96
2022/07/28 05:58:08;;;;;;;;;;;25.70;59.10;;;;;;4940416;29;19969;-96
2022/07/28 06:00:34;;;;;;;;;;;25.80;58.60;;;;;;4942446;29;19949;-96
2022/07/28 06:03:00;;;;;;;;;;;25.90;57.80;;;;;;4944639;29;19941;-96
2022/07/28 06:05:27;;;;;;;;;;;25.90;57.80;;;;;;4945947;29;19965;-96
2022/07/28 06:07:53;;;;;;;;;;;26.00;57.30;;;;;;4949956;29;19944;-96
2022/07/28 06:10:20;;;;;;;;;;;26.00;56.80;;;;;;4950745;29;19945;-96
2022/07/28 06:12:47;;;;;;;;;;;26.10;56.40;;;;;;4950197;29;19967;-96
2022/07/28 06:15:16;;;;;;;;;;;26.20;55.60;;;;;;4951042;29;20279;-96
2022/07/28 06:17:42;;;;;;;;;;;26.20;55.60;;;;;;4928897;29;19944;-96
2022/07/28 06:20:08;;;;;;;;;;;26.30;55.30;;;;;;4941213;29;20405;-95
2022/07/28 06:22:47;;;;;;;;;;;26.30;54.90;;;;;;4934566;29;19951;-96
2022/07/28 06:25:20;;;;;;;;;;;26.40;54.30;;;;;;4906113;29;19952;-94
2022/07/28 06:27:46;;;;;;;;;;;26.50;54.10;;;;;;4921255;29;19985;-96
2022/07/28 06:30:12;;;;;;;;;;;26.60;53.50;;;;;;4925640;29;20045;-94
2022/07/28 06:32:40;;;;;;;;;;;26.70;53.10;;;;;;4927700;29;20468;-96
2022/07/28 06:35:06;;;;;;;;;;;26.70;53.20;;;;;;4915681;29;19990;-96
2022/07/28 06:37:32;;;;;;;;;;;26.70;52.80;;;;;;4913731;29;20404;-96
2022/07/28 06:39:57;;;;;;;;;;;26.80;52.80;;;;;;4927433;29;20449;-96
2022/07/28 06:42:23;;;;;;;;;;;26.90;52.30;;;;;;4912786;29;20013;-96
2022/07/28 06:44:49;;;;;;;;;;;27.00;52.10;;;;;;4928064;29;20002;-96
2022/07/28 06:47:15;;;;;;;;;;;27.10;51.60;;;;;;4926646;29;19943;-96
2022/07/28 06:49:41;;;;;;;;;;;27.10;51.70;;;;;;4929448;29;19941;-96
2022/07/28 06:52:06;;;;;;;;;;;27.10;51.90;;;;;;4929453;29;20002;-96
2022/07/28 06:54:32;;;;;;;;;;;27.10;51.70;;;;;;4925669;29;19946;-96
2022/07/28 06:56:58;;;;;;;;;;;27.10;51.60;;;;;;4930261;29;20028;-96
2022/07/28 06:59:23;;;;;;;;;;;27.20;51.70;;;;;;4930244;29;19969;-94
2022/07/28 07:01:50;;;;;;;;;;;27.20;51.00;;;;;;4928090;29;19939;-96
2022/07/28 07:04:16;;;;;;;;;;;27.20;50.90;;;;;;4916258;29;19944;-96
2022/07/28 07:06:42;;;;;;;;;;;27.30;51.10;;;;;;4931759;29;20004;-96
2022/07/28 07:09:09;;;;;;;;;;;27.30;50.60;;;;;;4933484;29;19950;-96
2022/07/28 07:11:35;;;;;;;;;;;27.40;50.60;;;;;;4937999;29;19969;-96
2022/07/28 07:14:01;;;;;;;;;;;27.40;50.80;;;;;;4937858;29;19937;-96
2022/07/28 07:16:27;;;;;;;;;;;27.40;50.70;;;;;;4928349;29;20015;-96
2022/07/28 07:18:53;;;;;;;;;;;27.50;50.10;;;;;;4912580;29;20434;-96
2022/07/28 07:21:18;;;;;;;;;;;27.50;50.10;;;;;;4918941;29;20016;-96
2022/07/28 07:23:44;;;;;;;;;;;27.50;49.50;;;;;;4924865;29;19944;-96
2022/07/28 07:26:12;;;;;;;;;;;27.60;49.80;;;;;;4911111;29;19938;-96
2022/07/28 07:28:40;;;;;;;;;;;27.70;49.40;;;;;;4921424;29;19949;-96
2022/07/28 07:31:06;;;;;;;;;;;27.70;49.50;;;;;;4930685;29;19961;-96
2022/07/28 07:33:32;;;;;;;;;;;27.80;49.00;;;;;;4905125;29;19964;-96
2022/07/28 07:35:58;;;;;;;;;;;27.90;49.20;;;;;;4917782;29;19957;-96
2022/07/28 07:38:23;;;;;;;;;;;27.90;49.30;;;;;;4905369;29;20426;-95
2022/07/28 07:40:50;;;;;;;;;;;28.00;50.00;;;;;;4920129;29;19943;-96
2022/07/28 07:43:16;;;;;;;;;;;28.10;49.60;;;;;;4907922;29;19949;-96
2022/07/28 07:45:42;;;;;;;;;;;28.10;48.70;;;;;;4925398;29;19945;-96
2022/07/28 07:48:08;;;;;;;;;;;28.20;48.80;;;;;;4919961;29;19963;-96
2022/07/28 07:50:34;;;;;;;;;;;28.20;49.40;;;;;;4926324;29;19941;-96
2022/07/28 07:52:59;;;;;;;;;;;28.20;49.10;;;;;;4920674;29;19949;-96
2022/07/28 07:55:25;;;;;;;;;;;28.30;48.60;;;;;;4917359;29;19943;-96
2022/07/28 07:57:51;;;;;;;;;;;28.30;47.90;;;;;;4917210;29;19941;-96
2022/07/28 08:00:17;;;;;;;;;;;28.30;49.10;;;;;;4917387;29;19949;-96
2022/07/28 08:02:42;;;;;;;;;;;28.40;48.70;;;;;;4917517;29;19981;-96
2022/07/28 08:05:09;;;;;;;;;;;28.40;47.40;;;;;;4919787;29;19942;-96
2022/07/28 08:07:35;;;;;;;;;;;28.50;47.60;;;;;;4921035;29;19951;-95
2022/07/28 08:10:00;;;;;;;;;;;28.50;47.40;;;;;;4920684;29;19945;-95
2022/07/28 08:12:26;;;;;;;;;;;28.60;47.70;;;;;;4920913;29;20399;-95
2022/07/28 08:14:52;;;;;;;;;;;28.70;47.70;;;;;;4920601;29;19945;-96
2022/07/28 08:17:17;;;;;;;;;;;28.70;46.60;;;;;;4920577;29;19996;-96
2022/07/28 08:19:43;;;;;;;;;;;28.80;46.50;;;;;;4921380;29;19972;-96
2022/07/28 08:22:09;;;;;;;;;;;28.90;46.60;;;;;;4921178;29;19947;-96
2022/07/28 08:24:38;;;;;;;;;;;29.00;46.00;;;;;;4904756;29;19967;-96
2022/07/28 08:27:04;;;;;;;;;;;29.10;46.80;;;;;;4927898;29;19955;-96
2022/07/28 08:29:29;;;;;;;;;;;29.10;46.20;;;;;;4925431;29;19947;-96
2022/07/28 08:31:55;;;;;;;;;;;29.00;46.00;;;;;;4926175;29;19956;-96
2022/07/28 08:34:21;;;;;;;;;;;29.00;46.00;;;;;;4927751;29;19942;-96
2022/07/28 08:36:46;;;;;;;;;;;29.10;45.80;;;;;;4924625;29;19952;-96
2022/07/28 08:39:12;;;;;;;;;;;29.10;46.00;;;;;;4925959;29;20006;-96
2022/07/28 08:41:42;;;;;;;;;;;29.10;45.30;;;;;;4905389;29;19968;-96
2022/07/28 08:44:12;;;;;;;;;;;29.10;45.60;;;;;;4906059;29;19950;-96
2022/07/28 08:46:38;;;;;;;;;;;29.00;45.50;;;;;;4907567;29;20389;-96
2022/07/28 08:49:08;;;;;;;;;;;29.00;46.00;;;;;;4923283;29;20004;-96
2022/07/28 08:51:33;;;;;;;;;;;29.00;45.50;;;;;;4923000;29;20472;-96
2022/07/28 08:54:00;;;;;;;;;;;29.10;47.50;;;;;;4924677;29;19955;-96
2022/07/28 08:56:25;;;;;;;;;;;29.10;46.90;;;;;;4925111;29;19938;-96
2022/07/28 08:58:51;;;;;;;;;;;29.20;48.00;;;;;;4907307;29;19977;-96
2022/07/28 09:01:17;;;;;;;;;;;29.30;47.10;;;;;;4922450;29;19943;-96
2022/07/28 09:03:43;;;;;;;;;;;29.50;46.30;;;;;;4922074;29;19943;-96
2022/07/28 09:06:09;;;;;;;;;;;29.60;47.20;;;;;;4922337;29;19940;-96
2022/07/28 09:08:34;;;;;;;;;;;29.60;46.70;;;;;;4921931;29;19943;-96
2022/07/28 09:11:00;;;;;;;;;;;29.50;45.50;;;;;;4922746;29;20012;-96
2022/07/28 09:13:26;;;;;;;;;;;29.50;45.80;;;;;;4920295;29;19938;-96
2022/07/28 09:15:51;;;;;;;;;;;29.50;46.20;;;;;;4920697;29;20300;-96
2022/07/28 09:18:17;;;;;;;;;;;29.60;45.40;;;;;;4901390;29;20032;-96
2022/07/28 09:20:43;;;;;;;;;;;29.50;45.40;;;;;;4919557;29;20462;-96
2022/07/28 09:23:09;;;;;;;;;;;29.50;46.10;;;;;;4919184;29;19947;-95
2022/07/28 09:25:35;;;;;;;;;;;29.60;45.80;;;;;;4919027;29;19948;-96
2022/07/28 09:28:08;;;;;;;;;;;29.60;45.50;;;;;;4919185;29;20290;-96
2022/07/28 09:30:35;;;;;;;;;;;29.60;45.30;;;;;;4919126;29;20004;-96
2022/07/28 09:33:10;;;;;;;;;;;29.50;47.40;;;;;;4919037;29;19959;-95
2022/07/28 09:35:41;;;;;;;;;;;29.60;47.40;;;;;;4918870;29;19967;-96
2022/07/28 09:38:07;;;;;;;;;;;29.70;44.70;;;;;;4918690;29;19951;-95
2022/07/28 09:40:33;;;;;;;;;;;29.70;44.60;;;;;;4918488;29;20359;-95
2022/07/28 09:42:59;;;;;;;;;;;29.70;44.80;;;;;;4901792;29;19954;-96
2022/07/28 09:45:27;;;;;;;;;;;29.70;44.00;;;;;;4919039;29;20417;-95
2022/07/28 09:48:12;;;;;;;;;;;29.70;43.80;;;;;;4918879;29;19939;-96
2022/07/28 09:50:39;;;;;;;;;;;29.80;47.20;;;;;;4911337;23;19958;-96
2022/07/28 09:53:21;;;;;;;;;;;30.00;44.90;;;;;;4956960;29;20013;-96
2022/07/28 09:55:59;;;;;;;;;;;30.20;44.40;;;;;;4956798;28;20320;-96
2022/07/28 09:58:26;;;;;;;;;;;30.30;43.10;;;;;;4956675;29;20014;-96
2022/07/28 10:01:12;;;;;;;;;;;30.50;44.90;;;;;;4956624;29;20401;-96
2022/07/28 10:03:38;;;;;;;;;;;30.70;43.60;;;;;;4956075;29;19990;-96
2022/07/28 10:06:07;;;;;;;;;;;30.80;42.40;;;;;;4956620;28;20039;-96
2022/07/28 10:08:48;;;;;;;;;;;30.80;42.20;;;;;;4956417;28;19945;-95
2022/07/28 10:11:18;;;;;;;;;;;30.80;42.60;;;;;;4956454;28;19944;-96
2022/07/28 10:13:50;;;;;;;;;;;30.80;43.00;;;;;;4956598;28;19936;-96
2022/07/28 10:16:17;;;;;;;;;;;30.80;43.80;;;;;;4956674;29;19951;-96
2022/07/28 10:18:43;;;;;;;;;;;30.90;44.50;;;;;;4955069;29;19975;-95
2022/07/28 10:21:10;;;;;;;;;;;31.10;42.90;;;;;;4956551;29;19936;-96
2022/07/28 10:23:37;;;;;;;;;;;31.20;43.60;;;;;;4956724;28;20034;-96
2022/07/28 10:26:05;;;;;;;;;;;31.30;42.60;;;;;;4956374;28;19950;-96
2022/07/28 10:28:33;;;;;;;;;;;31.40;40.40;;;;;;4956244;28;19943;-96
2022/07/28 10:31:00;;;;;;;;;;;31.40;41.40;;;;;;4971008;28;19949;-96
2022/07/28 10:33:29;;;;;;;;;;;31.50;41.00;;;;;;4956316;28;19945;-96
2022/07/28 10:35:56;;;;;;;;;;;31.50;43.50;;;;;;4956216;28;19959;-95
2022/07/28 10:38:25;;;;;;;;;;;31.60;40.40;;;;;;4956176;28;20004;-96
2022/07/28 10:40:53;;;;;;;;;;;31.60;42.00;;;;;;4956509;28;19949;-96
2022/07/28 10:43:19;;;;;;;;;;;31.70;43.80;;;;;;4954878;29;19955;-96
2022/07/28 10:45:45;;;;;;;;;;;31.80;41.30;;;;;;4956177;28;19939;-96
2022/07/28 10:48:11;;;;;;;;;;;31.90;42.20;;;;;;4956398;28;19949;-96
2022/07/28 10:50:37;;;;;;;;;;;31.90;40.80;;;;;;4955898;28;20024;-96
2022/07/28 10:53:03;;;;;;;;;;;32.00;40.20;;;;;;4956072;28;19938;-96
2022/07/28 10:55:39;;;;;;;;;;;32.00;40.20;;;;;;4954818;29;20042;-96
2022/07/28 10:58:23;;;;;;;;;;;32.20;40.90;;;;;;4956038;28;19950;-96
2022/07/28 11:00:50;;;;;;;;;;;32.20;38.80;;;;;;4956175;28;19946;-96
2022/07/28 11:03:34;;;;;;;;;;;32.20;39.80;;;;;;4956220;28;20037;-96
2022/07/28 11:06:20;;;;;;;;;;;32.20;40.10;;;;;;4956010;28;20396;-96
2022/07/28 11:08:46;;;;;;;;;;;32.40;38.70;;;;;;4945624;28;19949;-96
2022/07/28 11:11:11;;;;;;;;;;;32.50;40.70;;;;;;4956265;29;19945;-96
2022/07/28 11:13:37;;;;;;;;;;;32.60;39.30;;;;;;4955645;29;19950;-96
2022/07/28 11:16:11;;;;;;;;;;;32.70;39.00;;;;;;4955804;29;19940;-96
2022/07/28 11:18:55;;;;;;;;;;;32.80;38.20;;;;;;4954444;29;19966;-96
2022/07/28 11:21:21;;;;;;;;;;;32.90;38.80;;;;;;4952063;28;20405;-96
2022/07/28 11:23:54;;;;;;;;;;;33.20;39.60;;;;;;4936256;29;19952;-96
2022/07/28 11:26:19;;;;;;;;;;;33.20;36.30;;;;;;4931813;29;19947;-96
2022/07/28 11:29:07;;;;;;;;;;;33.10;37.20;;;;;;4917538;29;20029;-96
2022/07/28 11:31:47;;;;;;;;;;;33.20;38.00;;;;;;4917585;29;19947;-96
2022/07/28 11:34:14;;;;;;;;;;;33.20;37.50;;;;;;4921923;29;19959;-96
2022/07/28 11:37:01;;;;;;;;;;;33.30;37.90;;;;;;4922319;29;20048;-96
2022/07/28 11:39:35;;;;;;;;;;;33.50;37.50;;;;;;4929695;29;19967;-96
2022/07/28 11:42:19;;;;;;;;;;;33.40;36.50;;;;;;4936916;29;20015;-96
2022/07/28 11:44:45;;;;;;;;;;;33.50;37.10;;;;;;4936783;29;19944;-96
2022/07/28 11:47:18;;;;;;;;;;;33.70;35.50;;;;;;4938642;29;19925;-96
2022/07/28 11:50:10;;;;;;;;;;;33.80;34.70;;;;;;4938288;29;19947;-96
2022/07/28 11:52:37;;;;;;;;;;;33.90;35.00;;;;;;4937052;29;19981;-96
2022/07/28 11:55:04;;;;;;;;;;;34.20;35.70;;;;;;4951281;29;20000;-96
2022/07/28 11:57:46;;;;;;;;;;;34.30;34.90;;;;;;4960717;29;19951;-96
2022/07/28 12:00:25;;;;;;;;;;;34.50;34.50;;;;;;4961560;29;19963;-96
2022/07/28 12:02:52;;;;;;;;;;;34.70;35.60;;;;;;4945473;29;19954;-96
2022/07/28 12:05:21;;;;;;;;;;;34.90;34.80;;;;;;4945195;29;19944;-96
2022/07/28 12:07:52;;;;;;;;;;;35.20;34.40;;;;;;4946263;29;19996;-96
2022/07/28 12:10:27;;;;;;;;;;;35.50;34.30;;;;;;4945799;29;19953;-96
2022/07/28 12:12:55;;;;;;;;;;;35.80;33.40;;;;;;4941992;29;19948;-96
2022/07/28 12:15:21;;;;;;;;;;;35.80;33.30;;;;;;4956964;29;19945;-96
2022/07/28 12:17:48;;;;;;;;;;;36.00;33.50;;;;;;4938188;29;19949;-96
2022/07/28 12:20:15;;;;;;;;;;;35.70;33.00;;;;;;4934842;29;19998;-96
2022/07/28 12:22:53;;;;;;;;;;;35.60;34.00;;;;;;4935966;29;20384;-96
2022/07/28 12:25:19;;;;;;;;;;;35.80;32.90;;;;;;4935487;29;19947;-96
2022/07/28 12:27:44;;;;;;;;;;;35.70;32.40;;;;;;4935062;29;20012;-96
2022/07/28 12:30:11;;;;;;;;;;;36.00;34.10;;;;;;4939864;29;19948;-96
2022/07/28 12:32:38;;;;;;;;;;;36.10;33.80;;;;;;4959586;29;19953;-96
2022/07/28 12:35:04;;;;;;;;;;;36.40;32.00;;;;;;4941979;29;19942;-96
2022/07/28 12:37:35;;;;;;;;;;;36.60;31.60;;;;;;4959981;29;19999;-96
2022/07/28 12:47:48;;;;;;;;;;;38.00;29.50;;;;;;5407217;23;20445;-96
2022/07/28 12:50:15;;;;;;;;;;;37.80;29.10;;;;;;4991080;28;19966;-96
2022/07/28 12:52:42;;;;;;;;;;;38.20;28.80;;;;;;4992545;28;19948;-96
2022/07/28 12:55:30;;;;;;;;;;;38.40;29.80;;;;;;4988880;28;19960;-96
2022/07/28 12:57:56;;;;;;;;;;;38.20;27.20;;;;;;4981665;28;20380;-96
2022/07/28 13:00:24;;;;;;;;;;;37.20;29.80;;;;;;5001037;28;19971;-96
2022/07/28 13:02:50;;;;;;;;;;;37.10;29.70;;;;;;4998875;28;19949;-96
2022/07/28 13:05:29;;;;;;;;;;;37.70;29.80;;;;;;4997574;28;20004;-96
2022/07/28 13:08:01;;;;;;;;;;;38.20;29.80;;;;;;4981301;28;19948;-96
2022/07/28 13:10:28;;;;;;;;;;;39.10;27.50;;;;;;4998622;28;20313;-96
2022/07/28 13:13:01;;;;;;;;;;;39.60;26.60;;;;;;4980802;28;19945;-96
2022/07/28 13:15:26;;;;;;;;;;;40.20;26.20;;;;;;4999719;28;19956;-96
2022/07/28 13:17:53;;;;;;;;;;;40.50;26.20;;;;;;4998573;28;19942;-96
2022/07/28 13:20:21;;;;;;;;;;;40.20;25.90;;;;;;4996571;28;20065;-96
2022/07/28 13:22:46;;;;;;;;;;;40.20;26.50;;;;;;4978798;28;20411;-96
2022/07/28 13:25:12;;;;;;;;;;;40.80;24.50;;;;;;4996524;28;19945;-96
2022/07/28 13:27:38;;;;;;;;;;;41.10;25.40;;;;;;4997251;28;20040;-96
2022/07/28 13:30:04;;;;;;;;;;;41.80;25.50;;;;;;4998286;28;19986;-96
2022/07/28 13:32:30;;;;;;;;;;;42.40;23.30;;;;;;4997320;28;19943;-96
2022/07/28 13:34:56;;;;;;;;;;;42.10;23.00;;;;;;5000795;28;19943;-96
2022/07/28 13:37:22;;;;;;;;;;;41.50;23.90;;;;;;4988433;28;19960;-96
2022/07/28 13:39:49;;;;;;;;;;;41.30;25.10;;;;;;4989684;28;19996;-96
2022/07/28 13:42:14;;;;;;;;;;;41.20;25.20;;;;;;4984921;28;19937;-96
2022/07/28 13:44:40;;;;;;;;;;;41.40;25.60;;;;;;4987120;28;19982;-96
2022/07/28 13:47:06;;;;;;;;;;;41.10;25.00;;;;;;4982386;28;20017;-96
2022/07/28 13:49:32;;;;;;;;;;;41.10;25.00;;;;;;4964457;28;19988;-96
2022/07/28 13:51:59;;;;;;;;;;;40.20;27.10;;;;;;4980194;28;19943;-96
2022/07/28 13:54:24;;;;;;;;;;;39.60;27.40;;;;;;4981164;28;19937;-96
2022/07/28 13:56:50;;;;;;;;;;;38.40;29.60;;;;;;4980411;28;20373;-96
2022/07/28 13:59:15;;;;;;;;;;;37.30;31.20;;;;;;4980492;28;19969;-96
2022/07/28 14:01:41;;;;;;;;;;;37.00;32.40;;;;;;4962849;28;20357;-96
2022/07/28 14:04:07;;;;;;;;;;;36.70;33.00;;;;;;4962949;28;19952;-96
2022/07/28 14:06:33;;;;;;;;;;;36.20;33.50;;;;;;4981024;28;19942;-96
2022/07/28 14:08:58;;;;;;;;;;;36.20;33.40;;;;;;4960158;28;19995;-96
2022/07/28 14:11:24;;;;;;;;;;;36.40;32.90;;;;;;4977686;28;19942;-96
2022/07/28 14:13:53;;;;;;;;;;;37.10;31.50;;;;;;4976597;28;19944;-96
2022/07/28 14:16:19;;;;;;;;;;;38.40;30.50;;;;;;4976469;28;19940;-96
2022/07/28 14:18:45;;;;;;;;;;;39.30;31.00;;;;;;4978080;28;20016;-96
2022/07/28 14:21:11;;;;;;;;;;;40.70;27.80;;;;;;4977532;28;19942;-96
2022/07/28 14:23:37;;;;;;;;;;;41.10;26.70;;;;;;4977580;28;19950;-96
2022/07/28 14:26:02;;;;;;;;;;;41.60;26.00;;;;;;4980197;28;19937;-96
2022/07/28 14:28:28;;;;;;;;;;;42.30;26.00;;;;;;4977685;28;20000;-96